createdAt,value
2023-03-04T00:04:59.305Z,-0.90
2023-03-04T00:07:25.963Z,-0.94
2023-03-04T00:09:52.585Z,-0.96
2023-03-04T00:12:19.258Z,-1.02
2023-03-04T00:14:45.850Z,-1.04
2023-03-04T00:17:12.472Z,-1.08
2023-03-04T00:19:39.272Z,-1.09
2023-03-04T00:22:05.983Z,-1.11
2023-03-04T00:24:32.880Z,-1.07
2023-03-04T00:26:59.611Z,-1.05
2023-03-04T00:29:26.866Z,-1.02
2023-03-04T00:31:53.548Z,-1.05
2023-03-04T00:34:20.931Z,-1.09
2023-03-04T00:36:47.879Z,-1.14
2023-03-04T00:39:15.126Z,-1.26
2023-03-04T00:41:41.789Z,-1.26
2023-03-04T00:44:08.539Z,-1.29
2023-03-04T00:46:35.288Z,-1.36
2023-03-04T00:49:01.976Z,-1.39
2023-03-04T00:51:28.619Z,-1.40
2023-03-04T00:53:55.354Z,-1.38
2023-03-04T00:56:22.046Z,-1.37
2023-03-04T00:58:48.669Z,-1.35
2023-03-04T01:01:15.543Z,-1.39
2023-03-04T01:03:42.580Z,-1.40
2023-03-04T01:06:09.405Z,-1.40
2023-03-04T01:12:26.991Z,-1.54
2023-03-04T01:14:54.305Z,-1.55
2023-03-04T01:17:20.974Z,-1.53
2023-03-04T01:19:47.668Z,-1.53
2023-03-04T01:22:15.270Z,-1.51
2023-03-04T01:24:41.912Z,-1.54
2023-03-04T01:27:08.603Z,-1.54
2023-03-04T01:29:35.204Z,-1.53
2023-03-04T01:32:01.868Z,-1.52
2023-03-04T01:34:28.598Z,-1.53
2023-03-04T01:36:55.248Z,-1.55
2023-03-04T01:39:21.902Z,-1.56
2023-03-04T01:41:48.884Z,-1.55
2023-03-04T01:44:15.919Z,-1.51
2023-03-04T01:46:48.600Z,-1.54
2023-03-04T01:49:17.139Z,-1.57
2023-03-04T01:51:46.609Z,-1.55
2023-03-04T01:54:44.849Z,-1.59
2023-03-04T01:57:22.916Z,-1.53
2023-03-04T02:00:18.708Z,-1.61
2023-03-04T02:02:46.529Z,-1.62
2023-03-04T02:05:14.098Z,-1.64
2023-03-04T02:07:41.339Z,-1.63
2023-03-04T02:10:09.094Z,-1.68
2023-03-04T02:12:35.986Z,-1.64
2023-03-04T02:15:03.104Z,-1.64
2023-03-04T02:17:29.932Z,-1.62
2023-03-04T02:20:14.502Z,-1.66
2023-03-04T02:22:53.522Z,-1.73
2023-03-04T02:25:27.477Z,-1.75
2023-03-04T02:27:54.128Z,-1.77
2023-03-04T02:30:23.682Z,-1.76
2023-03-04T02:32:50.410Z,-1.76
2023-03-04T02:35:18.882Z,-1.77
2023-03-04T02:37:45.746Z,-1.78
2023-03-04T02:40:22.493Z,-1.78
2023-03-04T02:42:49.106Z,-1.76
2023-03-04T02:45:44.527Z,-1.80
2023-03-04T02:50:53.689Z,-1.83
2023-03-04T02:53:21.490Z,-1.87
2023-03-04T02:55:48.983Z,-1.87
2023-03-04T02:58:15.681Z,-1.91
2023-03-04T03:00:42.524Z,-1.90
2023-03-04T03:03:09.489Z,-1.91
2023-03-04T03:05:37.613Z,-1.90
2023-03-04T03:08:04.785Z,-1.86
2023-03-04T03:10:31.488Z,-1.82
2023-03-04T03:12:58.176Z,-1.85
2023-03-04T03:15:24.896Z,-1.86
2023-03-04T03:17:51.497Z,-1.87
2023-03-04T03:20:19.027Z,-1.88
2023-03-04T03:22:45.970Z,-1.91
2023-03-04T03:25:14.352Z,-1.94
2023-03-04T03:27:41.294Z,-1.98
2023-03-04T03:30:10.227Z,-1.98
2023-03-04T03:32:37.153Z,-2.04
2023-03-04T03:35:04.626Z,-2.00
2023-03-04T03:37:31.333Z,-1.99
2023-03-04T03:39:57.956Z,-1.97
2023-03-04T03:42:24.633Z,-1.98
2023-03-04T03:44:51.365Z,-1.97
2023-03-04T03:47:18.089Z,-2.00
2023-03-04T03:49:44.779Z,-2.04
2023-03-04T03:52:11.460Z,-2.07
2023-03-04T03:54:38.195Z,-2.16
2023-03-04T03:57:04.978Z,-2.23
2023-03-04T03:59:31.653Z,-2.30
2023-03-04T04:01:58.487Z,-2.42
2023-03-04T04:04:25.338Z,-2.48
2023-03-04T04:06:51.943Z,-2.50
2023-03-04T04:09:18.606Z,-2.48
2023-03-04T04:11:45.301Z,-2.45
2023-03-04T04:14:14.186Z,-2.47
2023-03-04T04:16:41.339Z,-2.45
2023-03-04T04:21:46.980Z,-2.39
2023-03-04T04:24:13.743Z,-2.39
2023-03-04T04:26:40.845Z,-2.41
2023-03-04T04:29:08.699Z,-2.40
2023-03-04T04:31:35.805Z,-2.41
2023-03-04T04:34:02.599Z,-2.43
2023-03-04T04:36:29.318Z,-2.42
2023-03-04T04:38:56.080Z,-2.41
2023-03-04T04:41:28.675Z,-2.46
2023-03-04T04:43:56.059Z,-2.50
2023-03-04T04:46:22.828Z,-2.51
2023-03-04T04:48:49.735Z,-2.49
2023-03-04T04:51:16.493Z,-2.46
2023-03-04T04:54:48.122Z,-2.46
2023-03-04T04:57:14.790Z,-2.52
2023-03-04T04:59:41.393Z,-2.51
2023-03-04T05:02:08.066Z,-2.54
2023-03-04T05:06:43.235Z,-2.47
2023-03-04T05:11:06.751Z,-2.53
2023-03-04T05:13:33.914Z,-2.56
2023-03-04T05:16:01.865Z,-2.55
2023-03-04T05:18:29.195Z,-2.55
2023-03-04T05:20:58.918Z,-2.58
2023-03-04T05:23:27.854Z,-2.58
2023-03-04T05:25:54.641Z,-2.56
2023-03-04T05:28:21.480Z,-2.55
2023-03-04T05:30:48.288Z,-2.66
2023-03-04T05:33:16.692Z,-2.74
2023-03-04T05:35:44.063Z,-2.73
2023-03-04T05:38:13.396Z,-2.72
2023-03-04T05:40:41.043Z,-2.72
2023-03-04T05:43:08.439Z,-2.70
2023-03-04T05:45:35.277Z,-2.69
2023-03-04T05:48:03.177Z,-2.69
2023-03-04T05:50:30.551Z,-2.62
2023-03-04T05:52:57.271Z,-2.63
2023-03-04T05:55:23.896Z,-2.63
2023-03-04T05:57:50.626Z,-2.59
2023-03-04T06:00:17.613Z,-2.49
2023-03-04T06:02:44.609Z,-2.48
2023-03-04T06:05:13.874Z,-2.50
2023-03-04T06:07:43.196Z,-2.49
2023-03-04T06:10:12.424Z,-2.48
2023-03-04T06:12:39.090Z,-2.46
2023-03-04T06:15:07.071Z,-2.42
2023-03-04T06:17:33.716Z,-2.44
2023-03-04T06:20:00.395Z,-2.41
2023-03-04T06:22:27.015Z,-2.35
2023-03-04T06:24:53.606Z,-2.33
2023-03-04T06:27:20.261Z,-2.29
2023-03-04T06:29:46.890Z,-2.27
2023-03-04T06:32:13.602Z,-2.20
2023-03-04T06:34:40.292Z,-1.89
2023-03-04T06:37:06.949Z,-1.20
2023-03-04T06:39:33.585Z,-0.71
2023-03-04T06:44:39.830Z,0.09
2023-03-04T06:47:07.076Z,0.47
2023-03-04T06:49:33.786Z,0.68
2023-03-04T06:52:00.690Z,0.67
2023-03-04T06:54:27.356Z,0.66
2023-03-04T06:56:54.033Z,0.77
2023-03-04T06:59:20.698Z,0.83
2023-03-04T07:01:47.358Z,1.08
2023-03-04T07:04:14.882Z,1.38
2023-03-04T07:06:41.710Z,1.62
2023-03-04T07:10:30.557Z,1.94
2023-03-04T07:12:57.283Z,1.98
2023-03-04T07:15:23.959Z,1.89
2023-03-04T07:17:50.601Z,2.08
2023-03-04T07:20:17.338Z,2.19
2023-03-04T07:22:44.403Z,2.42
2023-03-04T07:25:11.110Z,2.57
2023-03-04T07:27:38.885Z,2.82
2023-03-04T07:30:07.015Z,2.92
2023-03-04T07:32:36.909Z,2.83
2023-03-04T07:36:45.285Z,2.75
2023-03-04T07:39:15.697Z,2.72
2023-03-04T07:41:42.419Z,2.95
2023-03-04T07:44:13.252Z,3.09
2023-03-04T07:46:40.555Z,3.00
2023-03-04T07:49:07.745Z,3.41
2023-03-04T07:51:35.781Z,3.68
2023-03-04T07:54:02.694Z,3.95
2023-03-04T07:56:32.139Z,4.18
2023-03-04T07:58:59.774Z,4.19
2023-03-04T08:01:38.146Z,4.51
2023-03-04T08:04:07.467Z,4.68
2023-03-04T08:06:34.666Z,4.87
2023-03-04T08:09:06.879Z,4.99
2023-03-04T08:11:35.971Z,5.04
2023-03-04T08:14:03.048Z,5.21
2023-03-04T08:16:29.742Z,5.49
2023-03-04T08:18:58.942Z,5.75
2023-03-04T08:21:27.399Z,5.84
2023-03-04T08:23:54.945Z,6.12
2023-03-04T08:26:25.249Z,6.39
2023-03-04T08:28:53.524Z,6.43
2023-03-04T08:31:20.380Z,6.71
2023-03-04T08:33:47.324Z,6.66
2023-03-04T08:36:15.727Z,6.91
2023-03-04T08:38:42.870Z,7.13
2023-03-04T08:41:10.041Z,7.16
2023-03-04T08:43:36.803Z,7.38
2023-03-04T08:46:03.865Z,7.61
2023-03-04T08:48:30.847Z,7.62
2023-03-04T08:50:58.175Z,7.58
2023-03-04T08:53:25.015Z,7.76
2023-03-04T08:55:53.008Z,8.01
2023-03-04T08:58:20.129Z,8.05
2023-03-04T09:00:48.530Z,8.06
2023-03-04T09:03:16.497Z,8.18
2023-03-04T09:05:45.119Z,8.39
2023-03-04T09:08:11.922Z,8.40
2023-03-04T09:10:38.608Z,8.62
2023-03-04T09:13:06.368Z,8.70
2023-03-04T09:15:36.775Z,8.81
2023-03-04T09:18:05.267Z,9.01
2023-03-04T09:20:32.758Z,9.09
2023-03-04T09:22:59.384Z,9.40
2023-03-04T09:25:26.080Z,9.50
2023-03-04T09:27:52.855Z,9.74
2023-03-04T09:30:19.819Z,9.90
2023-03-04T09:32:46.506Z,10.06
2023-03-04T09:35:13.158Z,10.05
2023-03-04T09:37:41.649Z,10.22
2023-03-04T09:40:11.842Z,10.44
2023-03-04T09:42:47.450Z,10.66
2023-03-04T09:45:20.886Z,10.75
2023-03-04T09:47:50.970Z,10.67
2023-03-04T09:50:18.854Z,10.88
2023-03-04T09:52:56.779Z,10.97
2023-03-04T09:55:25.559Z,11.20
2023-03-04T09:58:16.072Z,11.37
2023-03-04T10:00:52.170Z,11.42
2023-03-04T10:03:20.869Z,11.34
2023-03-04T10:06:02.316Z,11.51
2023-03-04T10:08:49.982Z,11.75
2023-03-04T10:11:25.467Z,11.85
2023-03-04T10:14:01.677Z,11.89
2023-03-04T10:17:00.468Z,11.85
2023-03-04T10:19:57.884Z,12.06
2023-03-04T10:22:39.756Z,12.15
2023-03-04T10:25:38.913Z,12.13
2023-03-04T10:28:20.248Z,12.02
2023-03-04T10:31:12.360Z,11.99
2023-03-04T10:33:40.874Z,12.13
2023-03-04T10:36:26.434Z,12.11
2023-03-04T10:39:02.472Z,12.15
2023-03-04T10:41:30.550Z,12.41
2023-03-04T10:44:01.909Z,12.58
2023-03-04T10:46:28.612Z,12.68
2023-03-04T10:48:55.590Z,12.83
2023-03-04T10:51:29.897Z,12.87
2023-03-04T10:54:09.494Z,12.97
2023-03-04T10:56:45.797Z,13.03
2023-03-04T10:59:45.807Z,13.17
2023-03-04T11:02:26.980Z,13.10
2023-03-04T11:05:12.279Z,13.10
2023-03-04T11:07:59.923Z,13.23
2023-03-04T11:10:36.214Z,13.18
2023-03-04T11:13:07.377Z,13.31
2023-03-04T11:16:01.929Z,13.23
2023-03-04T11:18:48.663Z,13.34
2023-03-04T11:21:28.925Z,13.29
2023-03-04T11:24:26.055Z,13.63
2023-03-04T11:27:04.878Z,13.41
2023-03-04T11:29:42.262Z,13.25
2023-03-04T11:32:19.107Z,13.12
2023-03-04T11:34:48.876Z,12.83
2023-03-04T11:37:28.243Z,12.68
2023-03-04T11:40:18.671Z,13.04
2023-03-04T11:42:51.723Z,13.13
2023-03-04T11:45:30.943Z,13.15
2023-03-04T11:48:01.444Z,13.25
2023-03-04T11:50:28.226Z,13.48
2023-03-04T11:53:03.780Z,13.32
2023-03-04T11:55:49.096Z,13.22
2023-03-04T11:58:36.753Z,13.31
2023-03-04T12:01:15.141Z,13.35
2023-03-04T12:03:59.999Z,13.06
2023-03-04T12:06:43.711Z,12.82
2023-03-04T12:09:10.344Z,12.69
2023-03-04T12:12:06.084Z,12.66
2023-03-04T12:15:10.897Z,12.89
2023-03-04T12:17:49.369Z,12.95
2023-03-04T12:20:28.307Z,12.82
2023-03-04T12:23:10.941Z,12.68
2023-03-04T12:25:57.735Z,12.60
2023-03-04T12:29:05.525Z,12.40
2023-03-04T12:31:39.372Z,12.40
2023-03-04T12:34:08.932Z,12.37
2023-03-04T12:36:51.988Z,12.36
2023-03-04T12:39:24.444Z,12.32
2023-03-04T12:42:28.661Z,12.19
2023-03-04T12:45:20.935Z,12.12
2023-03-04T12:48:09.215Z,11.94
2023-03-04T12:50:35.820Z,11.79
2023-03-04T12:53:33.201Z,11.71
2023-03-04T12:56:02.928Z,11.71
2023-03-04T12:58:33.635Z,11.50
2023-03-04T13:01:09.185Z,11.56
2023-03-04T13:03:44.881Z,11.46
2023-03-04T13:06:11.598Z,11.37
2023-03-04T13:09:23.932Z,11.28
2023-03-04T13:12:02.693Z,11.18
2023-03-04T13:14:31.360Z,11.11
2023-03-04T13:17:18.458Z,11.10
2023-03-04T13:19:57.300Z,10.94
2023-03-04T13:22:46.637Z,10.81
2023-03-04T13:25:45.279Z,10.71
2023-03-04T13:28:18.518Z,10.74
2023-03-04T13:30:55.873Z,10.62
2023-03-04T13:33:22.634Z,10.56
2023-03-04T13:35:50.609Z,10.54
2023-03-04T13:38:32.581Z,10.43
2023-03-04T13:41:28.391Z,10.30
2023-03-04T13:44:00.396Z,10.19
2023-03-04T13:46:27.689Z,10.14
2023-03-04T13:48:57.384Z,10.09
2023-03-04T13:51:37.825Z,10.05
2023-03-04T13:54:28.875Z,9.98
2023-03-04T13:57:01.647Z,9.89
2023-03-04T13:59:39.176Z,9.76
2023-03-04T14:02:08.528Z,9.70
2023-03-04T14:04:38.252Z,9.61
2023-03-04T14:07:19.222Z,9.52
2023-03-04T14:10:05.248Z,9.47
2023-03-04T14:12:37.454Z,9.41
2023-03-04T14:15:20.917Z,9.44
2023-03-04T14:17:52.318Z,9.38
2023-03-04T14:20:35.797Z,9.37
2023-03-04T14:23:04.998Z,9.37
2023-03-04T14:25:36.530Z,9.38
2023-03-04T14:28:15.149Z,9.26
2023-03-04T14:30:44.266Z,9.14
2023-03-04T14:33:17.935Z,9.03
2023-03-04T14:35:51.160Z,8.90
2023-03-04T14:38:38.239Z,8.93
2023-03-04T14:41:21.133Z,9.01
2023-03-04T14:43:47.729Z,9.06
2023-03-04T14:46:18.973Z,9.06
2023-03-04T14:48:50.944Z,8.94
2023-03-04T14:51:30.787Z,8.95
2023-03-04T14:53:58.762Z,8.82
2023-03-04T14:56:35.107Z,8.79
2023-03-04T14:59:01.798Z,8.75
2023-03-04T15:01:36.216Z,8.65
2023-03-04T15:04:04.841Z,8.64
2023-03-04T15:06:34.258Z,8.59
2023-03-04T15:09:23.028Z,8.54
2023-03-04T15:12:03.989Z,8.48
2023-03-04T15:14:50.239Z,8.38
2023-03-04T15:17:27.000Z,8.43
2023-03-04T15:20:05.786Z,8.43
2023-03-04T15:22:33.666Z,8.37
2023-03-04T15:25:00.716Z,8.39
2023-03-04T15:27:29.670Z,8.26
2023-03-04T15:29:59.413Z,8.19
2023-03-04T15:32:30.282Z,8.17
2023-03-04T15:37:37.100Z,8.34
2023-03-04T15:40:13.218Z,8.38
2023-03-04T15:42:40.198Z,8.26
2023-03-04T15:45:32.870Z,8.33
2023-03-04T15:49:21.867Z,8.20
2023-03-04T15:51:50.499Z,8.01
2023-03-04T15:54:17.663Z,7.85
2023-03-04T15:56:44.281Z,7.95
2023-03-04T16:00:27.813Z,8.05
2023-03-04T16:02:54.536Z,7.96
2023-03-04T16:05:24.233Z,7.81
2023-03-04T16:07:52.079Z,7.64
2023-03-04T16:10:25.302Z,7.50
2023-03-04T16:12:53.094Z,7.42
2023-03-04T16:15:22.805Z,7.35
2023-03-04T16:17:49.656Z,7.18
2023-03-04T16:23:00.881Z,7.01
2023-03-04T16:25:28.708Z,6.92
2023-03-04T16:28:05.187Z,6.82
2023-03-04T16:30:32.107Z,6.86
2023-03-04T16:32:58.776Z,6.76
2023-03-04T16:35:27.792Z,6.65
2023-03-04T16:37:54.880Z,6.53
2023-03-04T16:40:26.338Z,6.48
2023-03-04T16:42:53.162Z,6.42
2023-03-04T16:45:22.919Z,6.32
2023-03-04T16:47:49.627Z,6.21
2023-03-04T16:50:20.050Z,6.14
2023-03-04T16:52:49.255Z,6.03
2023-03-04T16:55:19.955Z,5.93
2023-03-04T16:57:47.548Z,5.83
2023-03-04T17:00:17.379Z,5.70
2023-03-04T17:02:46.145Z,5.66
2023-03-04T17:17:45.186Z,5.16
2023-03-04T17:20:15.076Z,4.98
2023-03-04T17:22:42.305Z,4.89
2023-03-04T17:25:09.806Z,4.85
2023-03-04T17:27:37.546Z,4.75
2023-03-04T17:32:46.604Z,4.67
2023-03-04T17:35:13.311Z,4.61
2023-03-04T17:37:40.681Z,4.58
2023-03-04T17:40:08.952Z,4.52
2023-03-04T17:44:07.235Z,4.42
2023-03-04T17:46:33.950Z,4.34
2023-03-04T17:49:00.675Z,4.24
2023-03-04T17:51:35.550Z,4.17
2023-03-04T17:54:05.499Z,4.09
2023-03-04T17:56:33.581Z,4.06
2023-03-04T17:59:01.772Z,4.03
2023-03-04T18:01:28.512Z,3.94
2023-03-04T18:03:55.599Z,3.84
2023-03-04T18:06:25.150Z,3.79
2023-03-04T18:08:52.763Z,3.76
2023-03-04T18:11:21.742Z,3.73
2023-03-04T18:13:48.828Z,3.69
2023-03-04T18:16:23.299Z,3.67
2023-03-04T18:18:51.055Z,3.50
2023-03-04T18:21:18.608Z,3.45
2023-03-04T18:23:45.613Z,3.36
2023-03-04T18:26:12.724Z,3.34
2023-03-04T18:28:39.767Z,3.37
2023-03-04T18:31:06.572Z,3.34
2023-03-04T18:33:33.853Z,3.28
2023-03-04T18:36:02.473Z,3.23
2023-03-04T18:38:29.978Z,3.18
2023-03-04T18:43:41.227Z,3.15
2023-03-04T18:46:17.893Z,3.11
2023-03-04T18:51:30.813Z,3.02
2023-03-04T18:53:58.689Z,3.02
2023-03-04T18:56:40.127Z,2.97
2023-03-04T18:59:13.267Z,2.91
2023-03-04T19:01:40.567Z,2.81
2023-03-04T19:04:07.576Z,2.74
2023-03-04T19:06:34.739Z,2.69
2023-03-04T19:09:02.100Z,2.64
2023-03-04T19:11:30.030Z,2.60
2023-03-04T19:13:56.722Z,2.57
2023-03-04T19:16:23.730Z,2.50
2023-03-04T19:18:50.406Z,2.44
2023-03-04T19:21:17.892Z,2.41
2023-03-04T19:23:58.098Z,2.36
2023-03-04T19:26:24.720Z,2.28
2023-03-04T19:28:51.319Z,2.26
2023-03-04T19:31:18.045Z,2.16
2023-03-04T19:33:44.678Z,2.13
2023-03-04T19:36:11.476Z,2.08
2023-03-04T19:38:38.292Z,2.04
2023-03-04T19:41:13.255Z,2.02
2023-03-04T19:43:40.431Z,1.95
2023-03-04T19:46:09.470Z,1.94
2023-03-04T19:48:37.732Z,1.87
2023-03-04T19:51:05.283Z,1.85
2023-03-04T19:53:34.743Z,1.81
2023-03-04T19:56:01.615Z,1.74
2023-03-04T19:58:28.269Z,1.69
2023-03-04T20:00:56.236Z,1.66
2023-03-04T20:03:24.082Z,1.60
2023-03-04T20:05:50.850Z,1.60
2023-03-04T20:08:17.579Z,1.56
2023-03-04T20:10:44.305Z,1.55
2023-03-04T20:13:10.990Z,1.50
2023-03-04T20:15:42.226Z,1.44
2023-03-04T20:18:08.950Z,1.39
2023-03-04T20:20:38.563Z,1.34
2023-03-04T20:25:45.819Z,1.31
2023-03-04T20:28:12.498Z,1.28
2023-03-04T20:30:39.411Z,1.27
2023-03-04T20:33:06.058Z,1.26
2023-03-04T20:35:32.838Z,1.24
2023-03-04T20:40:40.577Z,1.23
2023-03-04T20:43:07.276Z,1.19
2023-03-04T20:45:36.403Z,1.16
2023-03-04T20:48:04.291Z,1.11
2023-03-04T20:50:30.986Z,1.03
2023-03-04T20:52:57.649Z,0.95
2023-03-04T21:02:11.531Z,0.83
2023-03-04T21:04:38.294Z,0.80
2023-03-04T21:09:44.795Z,0.72
2023-03-04T21:12:11.448Z,0.69
2023-03-04T21:14:39.674Z,0.68
2023-03-04T21:17:06.460Z,0.62
2023-03-04T21:19:36.488Z,0.57
2023-03-04T21:22:04.060Z,0.56
2023-03-04T21:24:33.238Z,0.50
2023-03-04T21:27:01.620Z,0.46
2023-03-04T21:29:28.395Z,0.44
2023-03-04T21:32:09.754Z,0.42
2023-03-04T21:34:48.355Z,0.47
2023-03-04T21:37:14.997Z,0.37
2023-03-04T21:39:41.672Z,0.33
2023-03-04T21:42:08.351Z,0.28
2023-03-04T21:44:48.650Z,0.24
2023-03-04T21:49:57.234Z,0.22
2023-03-04T21:52:24.004Z,0.17
2023-03-04T21:54:50.760Z,0.14
2023-03-04T21:57:18.107Z,0.13
2023-03-04T22:01:57.950Z,0.08
2023-03-04T22:04:24.712Z,0.05
2023-03-04T22:06:51.431Z,0.01
2023-03-04T22:09:18.160Z,0.05
2023-03-04T22:11:44.905Z,0.01
2023-03-04T22:14:12.107Z,0.00
2023-03-04T22:16:54.189Z,-0.06
2023-03-04T22:19:25.082Z,-0.07
2023-03-04T22:21:52.778Z,-0.06
2023-03-04T22:24:20.321Z,-0.05
2023-03-04T22:26:47.161Z,-0.04
2023-03-04T22:29:13.869Z,-0.08
2023-03-04T22:31:40.758Z,-0.13
2023-03-04T22:34:10.455Z,-0.18
2023-03-04T22:36:40.442Z,-0.24
2023-03-04T22:39:09.670Z,-0.36
2023-03-04T22:41:36.675Z,-0.39
2023-03-04T22:44:03.993Z,-0.40
2023-03-04T22:46:33.045Z,-0.40
2023-03-04T22:49:04.834Z,-0.47
2023-03-04T22:51:32.918Z,-0.51
2023-03-04T22:53:59.694Z,-0.51
2023-03-04T22:56:26.375Z,-0.47
2023-03-04T22:58:53.089Z,-0.56
2023-03-04T23:01:20.403Z,-0.60
2023-03-04T23:06:30.242Z,-0.61
2023-03-04T23:11:37.039Z,-0.65
2023-03-04T23:14:07.065Z,-0.70
2023-03-04T23:19:21.125Z,-0.74
2023-03-04T23:21:48.086Z,-0.74
2023-03-04T23:24:15.192Z,-0.78
2023-03-04T23:26:43.013Z,-0.83
2023-03-04T23:29:13.769Z,-0.86
2023-03-04T23:31:40.404Z,-1.05
2023-03-04T23:34:07.227Z,-1.07
2023-03-04T23:36:36.290Z,-1.14
2023-03-04T23:39:04.982Z,-1.11
2023-03-04T23:41:33.084Z,-1.22
2023-03-04T23:44:01.137Z,-1.27
2023-03-04T23:46:28.845Z,-1.31
2023-03-04T23:48:56.304Z,-1.41
2023-03-04T23:51:28.389Z,-1.47
2023-03-04T23:53:55.985Z,-1.45
2023-03-04T23:56:25.644Z,-1.39
2023-03-04T23:58:52.398Z,-1.33
